Time;durP1;ratioP1;P1;durP2;ratioP2;P2;SDS_P1;SDS_P2;PMS_P1;PMS_P2;Temp;Humidity;BMP_temperature;BMP_pressure;BME280_temperature;BME280_humidity;BME280_pressure;Samples;Min_cycle;Max_cycle;Signal;HPM_P1;HPM_P2
2022/04/28 00:01:41;;;;;;;13.38;4.38;;;10.10;99.90;;;;;;5047457;28;20049;-67
2022/04/28 00:04:06;;;;;;;14.63;3.50;;;9.10;99.90;;;;;;5048174;28;20045;-67
2022/04/28 00:06:32;;;;;;;7.82;3.20;;;9.20;99.90;;;;;;5047264;28;20531;-67
2022/04/28 00:08:58;;;;;;;7.47;3.10;;;9.10;99.90;;;;;;5045415;28;20045;-67
2022/04/28 00:11:24;;;;;;;13.55;4.03;;;9.10;99.90;;;;;;5032837;28;20045;-67
2022/04/28 00:13:50;;;;;;;12.60;3.47;;;9.10;99.90;;;;;;5047311;28;20052;-67
2022/04/28 00:16:16;;;;;;;9.82;3.60;;;9.10;99.90;;;;;;5046658;28;20397;-67
2022/04/28 00:18:41;;;;;;;11.38;3.45;;;9.10;99.90;;;;;;5029683;28;20056;-67
2022/04/28 00:21:07;;;;;;;8.75;2.75;;;9.10;99.90;;;;;;5047906;28;20044;-68
2022/04/28 00:23:33;;;;;;;8.98;3.08;;;9.10;99.90;;;;;;5046539;28;20128;-67
2022/04/28 00:25:58;;;;;;;9.90;3.20;;;9.10;99.90;;;;;;5047784;28;20041;-68
2022/04/28 00:28:24;;;;;;;8.23;2.85;;;9.10;99.90;;;;;;5046653;28;20063;-67
2022/04/28 00:30:49;;;;;;;8.73;3.20;;;10.20;99.90;;;;;;5052160;28;20044;-66
2022/04/28 00:33:15;;;;;;;9.57;3.28;;;9.20;99.90;;;;;;5033531;28;20060;-67
2022/04/28 00:35:41;;;;;;;8.05;3.00;;;9.20;99.90;;;;;;5050485;28;20099;-67
2022/04/28 00:38:06;;;;;;;9.35;3.20;;;9.10;99.90;;;;;;5050911;28;20045;-67
2022/04/28 00:40:32;;;;;;;9.75;3.20;;;9.10;99.90;;;;;;5050917;28;20049;-67
2022/04/28 00:43:18;;;;;;;11.73;2.90;;;9.10;99.90;;;;;;5050425;28;20484;-67
2022/04/28 00:45:43;;;;;;;7.97;3.20;;;9.10;99.90;;;;;;5035925;28;20041;-67
2022/04/28 00:50:56;;;;;;;11.05;3.20;;;9.70;99.90;;;;;;5052394;28;20513;-67
2022/04/28 00:53:22;;;;;;;8.43;3.20;;;9.10;99.90;;;;;;5052159;28;20045;-67
2022/04/28 00:55:47;;;;;;;8.68;3.10;;;9.10;99.90;;;;;;5050649;28;20045;-67
2022/04/28 00:58:13;;;;;;;11.13;3.00;;;9.10;99.90;;;;;;5050335;28;20403;-67
2022/04/28 01:00:42;;;;;;;8.35;2.85;;;9.10;99.90;;;;;;5050708;28;20037;-67
2022/04/28 01:03:09;;;;;;;8.13;2.70;;;9.10;99.90;;;;;;5066593;28;20441;-67
2022/04/28 01:05:35;;;;;;;10.63;3.38;;;9.10;99.90;;;;;;5050375;28;20044;-67
2022/04/28 01:08:01;;;;;;;10.25;3.10;;;9.10;99.90;;;;;;5030732;28;20047;-67
2022/04/28 01:10:26;;;;;;;7.85;2.80;;;9.10;99.90;;;;;;5050523;28;20052;-67
2022/04/28 01:12:52;;;;;;;12.57;3.42;;;9.00;99.90;;;;;;5049877;28;20128;-67
2022/04/28 01:15:18;;;;;;;7.57;2.92;;;9.00;99.90;;;;;;5050232;28;20057;-67
2022/04/28 01:17:44;;;;;;;9.85;3.65;;;9.00;99.90;;;;;;5049686;28;20168;-67
2022/04/28 01:20:10;;;;;;;11.40;3.28;;;9.90;99.90;;;;;;5050797;28;20044;-67
2022/04/28 01:22:36;;;;;;;14.80;3.28;;;9.00;99.90;;;;;;5050230;28;20163;-67
2022/04/28 01:25:08;;;;;;;8.48;3.17;;;9.10;99.90;;;;;;5049496;28;20041;-67
2022/04/28 01:27:37;;;;;;;11.57;3.03;;;9.00;99.90;;;;;;5050594;28;20055;-67
2022/04/28 01:30:10;;;;;;;12.77;3.30;;;9.00;99.90;;;;;;5049625;28;20048;-67
2022/04/28 01:32:35;;;;;;;10.10;3.15;;;9.00;99.90;;;;;;5046834;28;20072;-67
2022/04/28 01:35:02;;;;;;;12.15;3.75;;;9.00;99.90;;;;;;5070349;28;20099;-67
2022/04/28 01:37:27;;;;;;;11.15;3.42;;;9.00;99.90;;;;;;5055823;28;20080;-68
2022/04/28 01:39:53;;;;;;;8.80;3.17;;;9.00;99.90;;;;;;5048388;28;20509;-68
2022/04/28 01:42:19;;;;;;;9.82;3.33;;;9.00;99.90;;;;;;5049838;28;20115;-68
2022/04/28 01:44:44;;;;;;;10.13;3.72;;;9.00;99.90;;;;;;5049648;28;20044;-68
2022/04/28 01:47:10;;;;;;;9.30;3.80;;;9.00;99.90;;;;;;5049073;28;20400;-68
2022/04/28 01:49:35;;;;;;;9.35;3.20;;;9.00;99.90;;;;;;5050423;28;20102;-68
2022/04/28 01:54:57;;;;;;;11.13;3.40;;;9.00;99.90;;;;;;5051175;28;20052;-68
2022/04/28 01:57:27;;;;;;;8.25;3.80;;;9.00;99.90;;;;;;5049969;28;20176;-68
2022/04/28 01:59:53;;;;;;;9.77;3.45;;;9.00;99.90;;;;;;5048323;28;20111;-68
2022/04/28 02:02:19;;;;;;;12.20;3.67;;;9.00;99.90;;;;;;5050485;28;20052;-68
2022/04/28 02:04:45;;;;;;;9.20;3.30;;;9.00;99.90;;;;;;5049644;28;20473;-68
2022/04/28 02:07:13;;;;;;;13.32;3.47;;;10.10;99.90;;;;;;5049251;28;20041;-67
2022/04/28 02:09:42;;;;;;;11.90;3.60;;;9.00;99.90;;;;;;5049328;28;20432;-67
2022/04/28 02:12:09;;;;;;;11.55;3.50;;;9.00;99.90;;;;;;5049319;28;20556;-68
2022/04/28 02:14:38;;;;;;;7.93;4.00;;;9.00;99.90;;;;;;5046735;28;20096;-67
2022/04/28 02:17:06;;;;;;;10.10;3.30;;;9.00;99.90;;;;;;5049563;28;20087;-67
2022/04/28 02:19:34;;;;;;;8.45;3.55;;;9.00;99.90;;;;;;5049589;28;20033;-68
2022/04/28 02:22:03;;;;;;;10.45;3.60;;;9.10;99.90;;;;;;5049791;28;20067;-68
2022/04/28 02:24:29;;;;;;;13.82;4.65;;;9.00;99.90;;;;;;5050099;28;20072;-68
2022/04/28 02:26:55;;;;;;;12.70;3.92;;;8.90;99.90;;;;;;5048744;28;20087;-68
2022/04/28 02:29:20;;;;;;;11.10;3.70;;;8.90;99.90;;;;;;5048638;28;20037;-68
2022/04/28 02:31:46;;;;;;;9.20;3.65;;;9.90;99.90;;;;;;5049349;28;20488;-68
2022/04/28 02:34:11;;;;;;;9.80;3.50;;;8.90;99.90;;;;;;5049319;28;20147;-68
2022/04/28 02:36:38;;;;;;;9.57;3.30;;;8.90;99.90;;;;;;5047220;28;20041;-69
2022/04/28 02:39:04;;;;;;;11.52;3.72;;;8.90;99.90;;;;;;5048502;28;20449;-68
2022/04/28 02:41:29;;;;;;;10.75;3.53;;;8.90;99.90;;;;;;5049125;28;20487;-68
2022/04/28 02:43:55;;;;;;;10.18;3.35;;;8.90;99.90;;;;;;5047713;28;20044;-68
2022/04/28 02:46:20;;;;;;;9.25;3.42;;;8.90;99.90;;;;;;5049371;28;20079;-68
2022/04/28 02:48:46;;;;;;;9.68;3.30;;;8.90;99.90;;;;;;5050851;28;20051;-68
2022/04/28 02:51:12;;;;;;;9.95;3.90;;;9.00;99.90;;;;;;5048058;28;20098;-68
2022/04/28 02:53:38;;;;;;;10.65;3.80;;;9.00;99.90;;;;;;5047986;28;20050;-68
2022/04/28 02:56:04;;;;;;;8.70;3.53;;;9.00;99.90;;;;;;5048255;28;20041;-68
2022/04/28 02:58:32;;;;;;;9.30;3.55;;;9.00;99.90;;;;;;5048852;28;20395;-68
2022/04/28 03:00:58;;;;;;;10.32;3.50;;;9.00;99.90;;;;;;5050681;28;20491;-69
2022/04/28 03:03:23;;;;;;;11.60;4.07;;;9.00;99.90;;;;;;5047851;28;20119;-68
2022/04/28 03:11:17;;;;;;;14.63;3.88;;;9.00;99.90;;;;;;5047225;28;20053;-68
2022/04/28 03:13:43;;;;;;;8.98;3.53;;;9.00;99.90;;;;;;5030105;28;20059;-68
2022/04/28 03:16:09;;;;;;;12.38;4.00;;;8.90;99.90;;;;;;5048971;28;20481;-68
2022/04/28 03:18:34;;;;;;;11.43;3.78;;;9.00;99.90;;;;;;5047178;28;20045;-68
2022/04/28 03:21:00;;;;;;;11.00;4.10;;;8.90;99.90;;;;;;5048518;28;20393;-68
2022/04/28 03:23:26;;;;;;;10.45;3.63;;;9.00;99.90;;;;;;5047561;28;20079;-68
2022/04/28 03:25:52;;;;;;;10.43;3.78;;;9.00;99.90;;;;;;5047732;28;20076;-69
2022/04/28 03:28:21;;;;;;;10.82;4.05;;;9.00;99.90;;;;;;5048018;28;20032;-68
2022/04/28 03:30:48;;;;;;;11.43;4.32;;;9.00;99.90;;;;;;5047843;28;20044;-69
2022/04/28 03:33:17;;;;;;;9.15;4.15;;;9.00;99.90;;;;;;5047697;28;20139;-68
2022/04/28 03:35:43;;;;;;;12.82;3.90;;;9.00;99.90;;;;;;5047511;28;20170;-68
2022/04/28 03:38:13;;;;;;;10.50;3.80;;;9.00;99.90;;;;;;5047161;28;20411;-68
2022/04/28 03:40:43;;;;;;;10.43;4.13;;;8.90;99.90;;;;;;5047487;28;20056;-68
2022/04/28 03:43:09;;;;;;;9.27;4.05;;;9.90;99.90;;;;;;5030432;28;20040;-68
2022/04/28 03:45:36;;;;;;;11.30;3.92;;;8.90;99.90;;;;;;5047331;28;20040;-68
2022/04/28 03:48:03;;;;;;;9.65;3.90;;;8.90;99.90;;;;;;5030524;28;20045;-68
2022/04/28 03:50:30;;;;;;;10.38;3.80;;;8.90;99.90;;;;;;5047182;28;20116;-68
2022/04/28 03:52:56;;;;;;;13.68;4.22;;;8.90;99.90;;;;;;5046529;28;20053;-68
2022/04/28 03:55:22;;;;;;;11.85;4.03;;;8.90;99.90;;;;;;5048400;28;20049;-68
2022/04/28 03:57:48;;;;;;;6.97;3.90;;;8.90;99.90;;;;;;5047217;28;20042;-68
2022/04/28 04:00:14;;;;;;;10.20;4.22;;;8.90;99.90;;;;;;5047163;28;20064;-68
2022/04/28 04:02:39;;;;;;;10.70;3.78;;;9.00;99.90;;;;;;5047775;28;20124;-68
2022/04/28 04:05:06;;;;;;;8.00;3.97;;;9.00;99.90;;;;;;5034613;28;20123;-68
2022/04/28 04:07:33;;;;;;;14.02;4.25;;;9.00;99.90;;;;;;5050703;28;20537;-68
2022/04/28 04:09:59;;;;;;;9.18;4.00;;;9.00;99.90;;;;;;5051610;28;20056;-68
2022/04/28 04:12:25;;;;;;;9.27;4.40;;;8.90;99.90;;;;;;5051355;28;20041;-68
2022/04/28 04:14:52;;;;;;;11.20;4.15;;;8.90;99.90;;;;;;5050613;28;20064;-68
2022/04/28 04:17:19;;;;;;;13.07;4.38;;;9.80;99.90;;;;;;5052160;28;20073;-68
2022/04/28 04:19:45;;;;;;;11.45;4.22;;;9.00;99.90;;;;;;5050940;28;20119;-68
2022/04/28 04:22:11;;;;;;;9.98;4.30;;;9.10;99.90;;;;;;5052575;28;20159;-68
2022/04/28 04:24:36;;;;;;;11.25;4.50;;;9.10;99.90;;;;;;5053581;28;20045;-68
2022/04/28 04:27:02;;;;;;;9.30;4.18;;;9.10;99.90;;;;;;5051773;28;20033;-68
2022/04/28 04:29:28;;;;;;;11.38;4.57;;;9.10;99.90;;;;;;5051325;28;20148;-67
2022/04/28 04:34:38;;;;;;;10.80;4.35;;;9.10;99.90;;;;;;5051473;28;20135;-68
2022/04/28 04:37:03;;;;;;;11.77;4.43;;;9.80;99.90;;;;;;5036022;28;20132;-68
2022/04/28 04:39:29;;;;;;;11.63;4.85;;;9.10;99.90;;;;;;5051441;28;20124;-68
2022/04/28 04:41:55;;;;;;;14.15;4.65;;;9.10;99.90;;;;;;5050200;28;20033;-68
2022/04/28 04:44:21;;;;;;;12.85;4.55;;;9.10;99.90;;;;;;5050473;28;20118;-68
2022/04/28 04:46:46;;;;;;;16.77;4.60;;;9.10;99.90;;;;;;5050884;28;20374;-68
2022/04/28 04:49:12;;;;;;;16.35;4.53;;;9.10;99.90;;;;;;5050991;28;20041;-68
2022/04/28 04:51:37;;;;;;;14.00;4.72;;;9.00;99.90;;;;;;5051379;28;20092;-68
2022/04/28 04:54:03;;;;;;;12.38;4.40;;;9.00;99.90;;;;;;5032058;28;20049;-68
2022/04/28 04:56:29;;;;;;;14.70;5.03;;;9.10;99.90;;;;;;5037139;28;20115;-68
2022/04/28 04:58:54;;;;;;;12.38;4.40;;;8.80;99.90;;;;;;5049459;28;20081;-68
2022/04/28 05:01:20;;;;;;;12.88;4.38;;;8.80;99.90;;;;;;5032895;28;20044;-67
2022/04/28 05:03:46;;;;;;;12.18;4.40;;;8.80;99.90;;;;;;5049897;28;20076;-68
2022/04/28 05:06:11;;;;;;;13.68;4.28;;;8.80;99.90;;;;;;5032184;28;20501;-67
2022/04/28 05:08:37;;;;;;;12.10;3.92;;;8.80;99.90;;;;;;5051015;28;20485;-68
2022/04/28 05:11:02;;;;;;;12.85;3.97;;;8.70;99.90;;;;;;5050388;28;20092;-69
2022/04/28 05:13:28;;;;;;;12.68;4.30;;;8.70;99.90;;;;;;5050726;28;20398;-68
2022/04/28 05:15:54;;;;;;;14.70;4.00;;;8.70;99.90;;;;;;5049740;28;20107;-67
2022/04/28 05:18:19;;;;;;;11.95;3.75;;;8.70;99.90;;;;;;5049613;28;20447;-68
2022/04/28 05:20:45;;;;;;;9.75;3.63;;;8.70;99.90;;;;;;5050768;28;20107;-67
2022/04/28 05:23:10;;;;;;;10.25;3.78;;;8.70;99.90;;;;;;5049012;28;20137;-68
2022/04/28 05:25:36;;;;;;;10.50;3.28;;;8.70;99.90;;;;;;5049781;28;20052;-68
2022/04/28 05:28:02;;;;;;;14.30;3.95;;;8.70;99.90;;;;;;5051917;28;20067;-68
2022/04/28 05:30:28;;;;;;;15.30;4.18;;;8.70;99.90;;;;;;5033762;28;20396;-68
2022/04/28 05:32:53;;;;;;;10.70;3.72;;;8.60;99.90;;;;;;5031466;28;20048;-68
2022/04/28 05:35:19;;;;;;;12.20;3.67;;;8.60;99.90;;;;;;5049986;28;20084;-68
2022/04/28 05:37:45;;;;;;;7.95;3.47;;;8.60;99.90;;;;;;5048748;28;20453;-68
2022/04/28 05:40:13;;;;;;;13.13;4.22;;;8.60;99.90;;;;;;5048678;28;20075;-67
2022/04/28 05:45:42;;;;;;;10.63;3.70;;;8.70;99.90;;;;;;5049291;28;20041;-67
2022/04/28 05:48:09;;;;;;;16.55;4.47;;;8.80;99.90;;;;;;5049128;28;20048;-67
2022/04/28 05:50:36;;;;;;;14.15;3.50;;;8.80;99.90;;;;;;5049804;28;20430;-67
2022/04/28 05:53:02;;;;;;;13.10;3.95;;;8.90;99.90;;;;;;5050089;28;20057;-68
2022/04/28 05:55:27;;;;;;;12.05;3.85;;;9.00;99.90;;;;;;5050434;28;20045;-67
2022/04/28 05:57:53;;;;;;;13.73;4.13;;;9.10;99.90;;;;;;5030528;28;20048;-68
2022/04/28 06:00:19;;;;;;;13.73;3.97;;;9.20;99.90;;;;;;5050592;28;20056;-68
2022/04/28 06:02:44;;;;;;;11.75;3.72;;;9.30;99.90;;;;;;5043769;28;20070;-68
2022/04/28 06:05:10;;;;;;;15.32;4.15;;;9.40;99.90;;;;;;5069714;28;20074;-68
2022/04/28 06:07:36;;;;;;;13.80;4.22;;;9.50;99.90;;;;;;5047016;28;20057;-68
2022/04/28 06:10:01;;;;;;;11.75;3.75;;;9.70;99.90;;;;;;5048791;28;20056;-68
2022/04/28 06:12:28;;;;;;;11.98;4.03;;;9.80;99.90;;;;;;5044206;28;20048;-68
2022/04/28 06:14:54;;;;;;;16.02;3.70;;;9.90;99.90;;;;;;5048517;28;20394;-69
2022/04/28 06:17:21;;;;;;;15.02;4.05;;;10.30;99.90;;;;;;5048503;28;20052;-68
2022/04/28 06:19:46;;;;;;;12.38;3.33;;;10.60;99.90;;;;;;5031305;28;20440;-67
2022/04/28 06:22:12;;;;;;;10.43;3.58;;;10.70;99.90;;;;;;5029777;28;20036;-69
2022/04/28 06:24:38;;;;;;;12.98;3.38;;;10.20;99.90;;;;;;5030855;28;20380;-68
2022/04/28 06:27:04;;;;;;;13.55;3.75;;;10.10;99.90;;;;;;5030268;28;20041;-67
2022/04/28 06:29:30;;;;;;;9.55;3.20;;;10.70;99.90;;;;;;5047059;28;20124;-68
2022/04/28 06:31:55;;;;;;;8.40;2.80;;;10.10;99.90;;;;;;5048519;28;20045;-68
2022/04/28 06:34:22;;;;;;;9.95;2.80;;;10.20;99.90;;;;;;5063772;28;20352;-68
2022/04/28 06:36:47;;;;;;;5.88;2.75;;;10.10;99.90;;;;;;5068847;28;20041;-68
2022/04/28 06:39:13;;;;;;;8.50;2.92;;;10.10;99.90;;;;;;5056545;28;20048;-68
2022/04/28 06:41:39;;;;;;;14.25;2.92;;;10.20;99.90;;;;;;5047705;28;20095;-68
2022/04/28 06:44:05;;;;;;;12.00;2.80;;;10.30;99.90;;;;;;5050856;28;20045;-67
2022/04/28 06:46:31;;;;;;;9.93;2.45;;;10.40;99.90;;;;;;5033382;28;20048;-67
2022/04/28 06:48:56;;;;;;;10.23;2.30;;;10.40;99.90;;;;;;5031625;28;20045;-67
2022/04/28 06:51:22;;;;;;;8.55;2.30;;;10.50;99.90;;;;;;5048449;28;20051;-67
2022/04/28 06:53:47;;;;;;;12.50;2.40;;;10.50;99.90;;;;;;5047068;28;20029;-68
2022/04/28 06:56:13;;;;;;;10.35;2.40;;;10.10;99.90;;;;;;5047917;28;20053;-68
2022/04/28 06:58:39;;;;;;;8.68;2.83;;;10.70;99.90;;;;;;5047774;28;20072;-68
2022/04/28 07:01:05;;;;;;;8.05;2.55;;;11.20;99.90;;;;;;5048410;28;20091;-69
2022/04/28 07:03:32;;;;;;;9.60;2.70;;;10.80;99.90;;;;;;5030037;28;20084;-68
2022/04/28 07:05:58;;;;;;;7.40;2.10;;;12.00;99.90;;;;;;5050717;28;20048;-68
2022/04/28 07:08:23;;;;;;;8.40;1.90;;;11.10;99.90;;;;;;5047726;28;20278;-68
2022/04/28 07:10:49;;;;;;;11.15;2.40;;;11.20;99.90;;;;;;5046175;28;20045;-67
2022/04/28 07:13:15;;;;;;;8.73;2.50;;;11.40;99.90;;;;;;5049306;28;20064;-69
2022/04/28 07:15:41;;;;;;;9.88;2.30;;;11.60;99.90;;;;;;5045591;28;20075;-69
2022/04/28 07:18:07;;;;;;;10.38;2.38;;;11.80;99.90;;;;;;5030153;28;20056;-68
2022/04/28 07:20:34;;;;;;;8.57;2.22;;;11.90;99.90;;;;;;5047750;28;20037;-67
2022/04/28 07:23:00;;;;;;;9.75;2.47;;;12.00;99.90;;;;;;5044651;28;20400;-67
2022/04/28 07:25:27;;;;;;;9.88;2.45;;;12.20;99.90;;;;;;5048148;28;20120;-67
2022/04/28 07:27:56;;;;;;;7.45;2.30;;;12.30;99.90;;;;;;5047100;28;20064;-67
2022/04/28 07:30:22;;;;;;;8.02;2.47;;;12.50;99.90;;;;;;5047884;28;20037;-67
2022/04/28 07:32:50;;;;;;;10.38;2.40;;;12.60;99.90;;;;;;5047513;28;20124;-66
2022/04/28 07:35:16;;;;;;;8.13;2.97;;;12.70;99.90;;;;;;5030572;28;20148;-67
2022/04/28 07:37:41;;;;;;;8.50;2.42;;;12.70;99.90;;;;;;5047238;28;20041;-67
2022/04/28 07:40:08;;;;;;;11.70;2.42;;;12.80;99.90;;;;;;5047394;28;20489;-67
2022/04/28 07:42:34;;;;;;;5.93;2.00;;;12.80;99.90;;;;;;5047567;28;20388;-68
2022/04/28 07:45:00;;;;;;;9.77;2.20;;;12.90;99.90;;;;;;5030018;28;20132;-67
2022/04/28 07:47:26;;;;;;;8.10;2.50;;;13.10;99.90;;;;;;5048838;28;20048;-68
2022/04/28 07:49:53;;;;;;;9.40;2.47;;;13.90;99.90;;;;;;5049156;28;20053;-68
2022/04/28 07:52:19;;;;;;;8.65;2.22;;;13.20;99.90;;;;;;5047553;28;20040;-68
2022/04/28 07:54:45;;;;;;;9.88;2.40;;;13.30;99.90;;;;;;5065668;28;20404;-67
2022/04/28 07:57:10;;;;;;;10.30;2.38;;;13.40;99.90;;;;;;5050526;28;20075;-67
2022/04/28 07:59:37;;;;;;;9.70;2.38;;;13.50;99.90;;;;;;5047605;28;20126;-69
2022/04/28 08:02:03;;;;;;;9.20;2.60;;;13.60;99.90;;;;;;5045167;28;20037;-68
2022/04/28 08:04:30;;;;;;;8.82;2.33;;;13.60;99.90;;;;;;5048307;28;20041;-68
2022/04/28 08:06:56;;;;;;;8.55;3.80;;;13.70;99.90;;;;;;5046957;28;20044;-67
2022/04/28 08:09:21;;;;;;;7.15;2.03;;;13.80;99.90;;;;;;5045821;28;20045;-67
2022/04/28 08:11:47;;;;;;;9.65;2.33;;;13.80;99.90;;;;;;5046462;28;20041;-66
2022/04/28 08:14:12;;;;;;;9.68;2.42;;;13.90;99.90;;;;;;5046603;28;20049;-67
2022/04/28 08:16:39;;;;;;;9.65;2.30;;;13.90;99.90;;;;;;5045640;28;20057;-67
2022/04/28 08:19:05;;;;;;;9.30;2.40;;;13.90;99.90;;;;;;5047313;28;20056;-68
2022/04/28 08:21:30;;;;;;;10.50;2.53;;;13.80;99.90;;;;;;5047025;28;20084;-67
2022/04/28 08:23:57;;;;;;;9.23;2.65;;;13.80;99.90;;;;;;5046453;28;20535;-67
2022/04/28 08:26:22;;;;;;;9.10;1.80;;;14.90;99.90;;;;;;5045136;28;20045;-66
2022/04/28 08:28:48;;;;;;;9.95;2.33;;;14.50;99.90;;;;;;5010709;28;20048;-67
2022/04/28 08:31:14;;;;;;;7.68;2.40;;;14.10;99.90;;;;;;5029701;28;20068;-67
2022/04/28 08:33:39;;;;;;;8.07;2.80;;;14.20;99.90;;;;;;5049770;28;20136;-67
2022/04/28 08:36:05;;;;;;;9.57;2.80;;;14.20;99.90;;;;;;5065467;28;20056;-68
2022/04/28 08:38:32;;;;;;;13.68;3.20;;;14.20;99.90;;;;;;5027715;28;20415;-72
2022/04/28 08:41:11;;;;;;;10.07;3.05;;;14.20;99.90;;;;;;5042087;28;20041;-70
2022/04/28 08:43:37;;;;;;;7.97;2.55;;;14.30;99.90;;;;;;5052188;28;20140;-71
2022/04/28 08:48:53;;;;;;;11.95;2.80;;;14.30;99.90;;;;;;5043411;28;20049;-71
2022/04/28 08:51:20;;;;;;;12.75;3.60;;;14.40;99.90;;;;;;5048538;28;20049;-70
2022/04/28 08:53:49;;;;;;;10.93;3.20;;;14.50;99.90;;;;;;5029147;28;20080;-70
2022/04/28 08:56:16;;;;;;;11.32;3.45;;;14.60;99.90;;;;;;5046758;28;20048;-70
2022/04/28 08:58:42;;;;;;;10.52;3.65;;;14.70;99.90;;;;;;5048331;28;20069;-71
2022/04/28 09:01:08;;;;;;;10.02;3.75;;;14.80;99.90;;;;;;5047545;28;20460;-70
2022/04/28 09:03:33;;;;;;;11.77;3.63;;;14.70;99.90;;;;;;5045991;28;20057;-70
2022/04/28 09:06:15;;;;;;;12.70;4.00;;;14.60;99.90;;;;;;5046901;28;20080;-69
2022/04/28 09:08:41;;;;;;;13.93;3.22;;;14.50;99.90;;;;;;5045841;28;20416;-71
2022/04/28 09:11:19;;;;;;;11.10;3.50;;;14.30;99.90;;;;;;5046713;28;20045;-71
2022/04/28 09:14:12;;;;;;;11.35;3.30;;;14.10;99.90;;;;;;5028687;28;20091;-71
2022/04/28 09:16:49;;;;;;;12.35;3.80;;;14.10;99.90;;;;;;5031027;28;20057;-71
2022/04/28 09:19:22;;;;;;;10.77;3.00;;;13.90;99.90;;;;;;5046699;28;20163;-71
2022/04/28 09:21:50;;;;;;;13.77;3.40;;;13.80;99.90;;;;;;5047028;28;20048;-71
2022/04/28 09:24:16;;;;;;;14.32;3.35;;;13.80;99.90;;;;;;5046432;28;20053;-71
2022/04/28 09:26:42;;;;;;;10.70;3.00;;;13.90;99.90;;;;;;5047430;28;20057;-71
2022/04/28 09:29:14;;;;;;;10.60;3.08;;;13.90;99.90;;;;;;5046782;28;20045;-71
2022/04/28 09:31:41;;;;;;;11.73;3.22;;;13.90;99.90;;;;;;5050288;28;20091;-71
2022/04/28 09:34:15;;;;;;;9.43;2.83;;;13.70;99.90;;;;;;5035463;28;20043;-71
2022/04/28 09:36:42;;;;;;;9.18;3.05;;;13.60;99.90;;;;;;5029047;28;20063;-72
2022/04/28 09:39:12;;;;;;;10.18;3.22;;;13.60;99.90;;;;;;5011088;28;20486;-70
2022/04/28 09:44:23;;;;;;;12.13;3.30;;;13.60;99.90;;;;;;5048731;28;20454;-70
2022/04/28 09:46:50;;;;;;;8.30;3.10;;;13.60;99.90;;;;;;5049765;28;20057;-71
2022/04/28 09:49:18;;;;;;;11.95;2.88;;;13.60;99.90;;;;;;5049368;28;20056;-71
2022/04/28 09:51:44;;;;;;;15.98;3.17;;;13.70;99.90;;;;;;5031294;28;20094;-70
2022/04/28 09:54:16;;;;;;;9.82;2.80;;;13.60;99.90;;;;;;5047635;28;20515;-70
2022/04/28 09:56:43;;;;;;;9.70;2.85;;;13.50;99.90;;;;;;5047677;28;20091;-70
2022/04/28 09:59:13;;;;;;;11.65;3.13;;;13.50;99.90;;;;;;5049432;28;20041;-70
2022/04/28 10:01:39;;;;;;;11.43;3.25;;;13.80;99.90;;;;;;5049540;28;20045;-70
2022/04/28 10:04:09;;;;;;;9.82;2.72;;;13.70;99.90;;;;;;5048960;28;20056;-70
2022/04/28 10:06:35;;;;;;;13.05;3.38;;;13.80;99.90;;;;;;5049790;28;20056;-70
2022/04/28 10:09:14;;;;;;;10.63;2.90;;;13.80;99.90;;;;;;5048985;28;20033;-72
2022/04/28 10:11:40;;;;;;;8.90;2.58;;;13.90;99.90;;;;;;5030193;28;20492;-70
2022/04/28 10:14:09;;;;;;;11.85;3.10;;;13.90;99.90;;;;;;5033240;28;20075;-70
2022/04/28 10:16:38;;;;;;;7.82;2.70;;;14.00;99.90;;;;;;5051597;28;20060;-70
2022/04/28 10:19:13;;;;;;;9.77;2.65;;;14.00;99.90;;;;;;5050877;28;20091;-71
2022/04/28 10:21:49;;;;;;;15.75;3.30;;;14.10;99.90;;;;;;5048749;28;20392;-71
2022/04/28 10:32:59;;;;;;;12.50;2.63;;;14.10;99.90;;;;;;5047743;28;20041;-71
2022/04/28 10:35:46;;;;;;;8.95;2.30;;;14.50;99.90;;;;;;5047756;28;20055;-71
2022/04/28 10:38:21;;;;;;;10.18;2.40;;;14.90;99.90;;;;;;5046720;28;20044;-71
2022/04/28 10:41:10;;;;;;;10.48;2.85;;;15.10;99.90;;;;;;5048075;28;20060;-70
2022/04/28 10:43:40;;;;;;;10.18;3.00;;;16.20;99.90;;;;;;5048579;28;20049;-71
2022/04/28 10:46:08;;;;;;;10.88;2.60;;;15.20;99.90;;;;;;5048110;28;20041;-70
2022/04/28 10:48:42;;;;;;;10.55;2.53;;;15.20;99.90;;;;;;5048005;28;20057;-71
2022/04/28 10:51:13;;;;;;;10.93;2.97;;;15.10;99.90;;;;;;5030959;28;20118;-70
2022/04/28 10:54:02;;;;;;;9.15;2.47;;;15.10;99.90;;;;;;5047000;28;20045;-70
2022/04/28 10:56:41;;;;;;;11.57;2.60;;;15.00;99.90;;;;;;5026729;28;20053;-70
2022/04/28 10:59:29;;;;;;;8.48;2.70;;;14.90;99.90;;;;;;5048118;28;20449;-70
2022/04/28 11:01:56;;;;;;;11.30;2.70;;;15.00;99.90;;;;;;5047076;28;20067;-70
2022/04/28 11:04:25;;;;;;;17.17;2.80;;;15.00;99.90;;;;;;5047445;28;20052;-71
2022/04/28 11:06:56;;;;;;;13.02;2.83;;;15.10;99.90;;;;;;5045923;28;20029;-70
2022/04/28 11:09:36;;;;;;;8.07;2.53;;;15.10;99.90;;;;;;5047912;28;20048;-70
2022/04/28 11:12:18;;;;;;;9.55;2.70;;;15.30;99.90;;;;;;5047286;28;20120;-70
2022/04/28 11:15:08;;;;;;;8.73;2.47;;;15.50;99.90;;;;;;5046833;28;20073;-70
2022/04/28 11:17:38;;;;;;;13.27;2.95;;;15.70;99.90;;;;;;5046521;28;20116;-70
2022/04/28 11:20:11;;;;;;;13.80;2.90;;;16.30;99.90;;;;;;5037312;28;20049;-70
2022/04/28 11:22:46;;;;;;;11.88;2.75;;;15.70;99.90;;;;;;5051192;28;20135;-72
2022/04/28 11:25:14;;;;;;;7.07;2.40;;;15.70;99.90;;;;;;5045784;28;20051;-72
2022/04/28 11:27:41;;;;;;;10.35;2.72;;;15.70;99.90;;;;;;5046404;28;20037;-72
2022/04/28 11:30:15;;;;;;;10.15;2.45;;;15.70;99.90;;;;;;5047727;28;20052;-72
2022/04/28 11:32:57;;;;;;;12.00;2.45;;;15.80;99.90;;;;;;5029404;28;20052;-72
2022/04/28 11:35:30;;;;;;;11.10;2.92;;;15.90;99.90;;;;;;5047044;28;20092;-72
2022/04/28 11:37:56;;;;;;;8.05;2.50;;;16.40;99.90;;;;;;5044520;28;20098;-72
2022/04/28 11:40:25;;;;;;;13.10;2.95;;;15.70;99.90;;;;;;5045956;28;20041;-72
2022/04/28 11:42:58;;;;;;;8.98;2.35;;;16.50;99.90;;;;;;5025868;28;20361;-72
2022/04/28 11:45:26;;;;;;;8.23;2.38;;;15.50;99.90;;;;;;5045516;28;20033;-71
2022/04/28 11:47:55;;;;;;;11.93;2.22;;;15.30;99.90;;;;;;5028243;28;20112;-71
2022/04/28 11:50:23;;;;;;;8.13;2.50;;;15.60;99.90;;;;;;5024664;28;20045;-72
2022/04/28 11:52:59;;;;;;;7.07;2.20;;;15.20;99.90;;;;;;5048950;28;20051;-72
2022/04/28 11:55:28;;;;;;;10.55;2.50;;;15.30;99.90;;;;;;5046541;28;20159;-71
2022/04/28 11:57:54;;;;;;;12.48;2.58;;;14.60;99.90;;;;;;5047831;28;20354;-71
2022/04/28 12:00:20;;;;;;;8.60;2.55;;;15.40;99.90;;;;;;5048914;28;20054;-71
2022/04/28 12:02:46;;;;;;;8.45;2.60;;;15.30;99.90;;;;;;5056784;28;20040;-71
2022/04/28 12:05:18;;;;;;;11.25;2.63;;;15.20;99.90;;;;;;5053704;28;20047;-74
2022/04/28 12:07:51;;;;;;;10.00;2.67;;;16.20;99.90;;;;;;5031144;28;20105;-69
2022/04/28 12:15:57;;;;;;;9.23;2.40;;;15.90;99.90;;;;;;5017379;28;20711;-70
2022/04/28 12:21:16;;;;;;;9.25;2.42;;;16.00;99.90;;;;;;5005671;28;20042;-70
2022/04/28 12:23:45;;;;;;;8.85;2.60;;;16.00;99.90;;;;;;5031674;28;20370;-71
2022/04/28 12:26:12;;;;;;;11.88;2.92;;;15.90;99.90;;;;;;5040336;28;20124;-72
2022/04/28 12:28:43;;;;;;;10.82;2.35;;;15.10;99.90;;;;;;5034926;28;20045;-70
2022/04/28 12:31:13;;;;;;;11.57;2.83;;;15.80;99.90;;;;;;5035320;28;20049;-70
2022/04/28 12:33:40;;;;;;;9.23;2.30;;;15.90;99.90;;;;;;5032421;28;20101;-71
2022/04/28 12:36:11;;;;;;;11.52;2.50;;;15.70;99.90;;;;;;5031575;28;20045;-71
2022/04/28 12:38:56;;;;;;;11.35;2.40;;;15.60;99.90;;;;;;5020984;28;20346;-71
2022/04/28 12:41:24;;;;;;;7.87;2.37;;;15.40;99.90;;;;;;5033341;28;20069;-71
2022/04/28 12:43:56;;;;;;;10.70;2.65;;;15.50;99.90;;;;;;5016513;28;20728;-71
2022/04/28 12:46:49;;;;;;;8.23;2.38;;;15.50;99.90;;;;;;5028858;28;20173;-71
2022/04/28 12:49:18;;;;;;;9.05;2.40;;;15.80;99.90;;;;;;5049440;28;20500;-71
2022/04/28 12:51:46;;;;;;;10.48;2.55;;;16.00;99.90;;;;;;5023880;28;20064;-72
2022/04/28 12:54:20;;;;;;;10.23;2.60;;;16.10;99.90;;;;;;5029540;28;20057;-71
2022/04/28 12:57:03;;;;;;;9.47;2.60;;;16.40;99.90;;;;;;5037946;28;20433;-72
2022/04/28 12:59:36;;;;;;;8.30;2.60;;;15.90;99.90;;;;;;5008323;28;20087;-72
2022/04/28 13:02:06;;;;;;;7.07;2.22;;;15.90;99.90;;;;;;5039477;28;20055;-72
2022/04/28 13:04:36;;;;;;;8.27;2.25;;;16.20;99.90;;;;;;5025071;28;20064;-72
2022/04/28 13:07:04;;;;;;;7.55;2.47;;;16.50;99.90;;;;;;5025301;28;20060;-70
2022/04/28 13:09:32;;;;;;;11.18;2.53;;;16.60;99.70;;;;;;5012727;28;20071;-72
2022/04/28 13:11:58;;;;;;;8.52;2.28;;;16.40;99.90;;;;;;5012692;28;20391;-72
2022/04/28 13:14:23;;;;;;;8.05;2.58;;;16.30;99.90;;;;;;5029934;28;20053;-71
2022/04/28 13:16:52;;;;;;;13.40;2.65;;;16.30;99.90;;;;;;5030129;28;20457;-72
2022/04/28 13:19:19;;;;;;;6.90;2.10;;;17.30;99.90;;;;;;5050824;28;20405;-73
2022/04/28 13:21:45;;;;;;;11.48;2.50;;;16.70;99.70;;;;;;5050061;28;20451;-71
2022/04/28 13:24:12;;;;;;;6.72;2.50;;;16.80;99.80;;;;;;5032268;28;20045;-72
2022/04/28 13:26:38;;;;;;;8.73;2.35;;;17.00;99.80;;;;;;5050010;28;20376;-73
2022/04/28 13:29:04;;;;;;;11.77;2.30;;;17.20;98.80;;;;;;5049183;28;20365;-72